createdAt,value
2022-09-07T00:02:05.464Z,99.12
2022-09-07T00:04:32.210Z,99.07
2022-09-07T00:06:58.879Z,100.00
2022-09-07T00:09:25.777Z,100.00
2022-09-07T00:11:52.492Z,100.00
2022-09-07T00:14:19.181Z,100.00
2022-09-07T00:16:45.856Z,100.00
2022-09-07T00:19:12.579Z,100.00
2022-09-07T00:21:39.335Z,100.00
2022-09-07T00:24:06.179Z,100.00
2022-09-07T00:26:32.944Z,100.00
2022-09-07T00:29:01.203Z,100.00
2022-09-07T00:31:29.567Z,100.00
2022-09-07T00:33:58.987Z,100.00
2022-09-07T00:36:25.669Z,100.00
2022-09-07T00:38:52.889Z,100.00
2022-09-07T00:41:20.915Z,100.00
2022-09-07T00:44:11.741Z,100.00
2022-09-07T00:46:38.447Z,100.00
2022-09-07T00:49:19.244Z,100.00
2022-09-07T00:51:53.985Z,100.00
2022-09-07T00:54:28.428Z,100.00
2022-09-07T00:56:55.208Z,100.00
2022-09-07T00:59:26.875Z,100.00
2022-09-07T01:01:54.003Z,100.00
2022-09-07T01:04:22.281Z,100.00
2022-09-07T01:06:49.465Z,100.00
2022-09-07T01:09:20.801Z,100.00
2022-09-07T01:11:51.104Z,100.00
2022-09-07T01:14:28.024Z,100.00
2022-09-07T01:17:18.486Z,100.00
2022-09-07T01:19:45.110Z,100.00
2022-09-07T01:22:30.721Z,100.00
2022-09-07T01:25:09.331Z,100.00
2022-09-07T01:28:00.785Z,100.00
2022-09-07T01:30:28.404Z,100.00
2022-09-07T01:33:19.426Z,100.00
2022-09-07T01:36:39.719Z,100.00
2022-09-07T01:39:07.042Z,100.00
2022-09-07T01:41:49.150Z,100.00
2022-09-07T01:44:24.231Z,100.00
2022-09-07T01:47:21.648Z,100.00
2022-09-07T01:50:06.261Z,100.00
2022-09-07T01:52:43.545Z,100.00
2022-09-07T01:55:27.356Z,100.00
2022-09-07T01:58:21.072Z,100.00
2022-09-07T02:00:54.148Z,100.00
2022-09-07T02:03:37.339Z,100.00
2022-09-07T02:06:31.828Z,100.00
2022-09-07T02:09:07.104Z,100.00
2022-09-07T02:11:36.603Z,100.00
2022-09-07T02:14:27.951Z,100.00
2022-09-07T02:17:07.215Z,100.00
2022-09-07T02:19:41.003Z,100.00
2022-09-07T02:22:13.457Z,100.00
2022-09-07T02:24:45.018Z,100.00
2022-09-07T02:27:21.447Z,100.00
2022-09-07T02:29:48.276Z,100.00
2022-09-07T02:32:14.958Z,100.00
2022-09-07T02:34:41.669Z,100.00
2022-09-07T02:37:09.418Z,100.00
2022-09-07T02:39:36.132Z,100.00
2022-09-07T02:42:03.291Z,100.00
2022-09-07T02:44:36.651Z,100.00
2022-09-07T02:47:31.172Z,100.00
2022-09-07T02:50:34.632Z,100.00
2022-09-07T02:53:13.466Z,100.00
2022-09-07T02:55:55.431Z,100.00
2022-09-07T02:58:41.067Z,100.00
2022-09-07T03:01:13.876Z,100.00
2022-09-07T03:03:52.835Z,100.00
2022-09-07T03:06:29.533Z,100.00
2022-09-07T03:09:00.330Z,100.00
2022-09-07T03:11:29.508Z,100.00
2022-09-07T03:14:19.852Z,100.00
2022-09-07T03:16:52.276Z,100.00
2022-09-07T03:19:18.926Z,100.00
2022-09-07T03:21:45.740Z,100.00
2022-09-07T03:24:12.408Z,100.00
2022-09-07T03:26:41.371Z,100.00
2022-09-07T03:29:08.087Z,100.00
2022-09-07T03:31:35.228Z,100.00
2022-09-07T03:34:02.270Z,100.00
2022-09-07T03:36:32.795Z,100.00
2022-09-07T03:38:59.871Z,100.00
2022-09-07T03:41:27.698Z,100.00
2022-09-07T03:43:54.945Z,100.00
2022-09-07T03:46:22.179Z,100.00
2022-09-07T03:48:50.431Z,100.00
2022-09-07T03:51:18.797Z,100.00
2022-09-07T03:53:46.796Z,100.00
2022-09-07T03:56:13.380Z,100.00
2022-09-07T03:58:40.269Z,100.00
2022-09-07T04:01:10.056Z,100.00
2022-09-07T04:03:36.861Z,100.00
2022-09-07T04:06:05.064Z,100.00
2022-09-07T04:08:33.806Z,100.00
2022-09-07T04:11:02.435Z,100.00
2022-09-07T04:13:30.516Z,100.00
2022-09-07T04:15:57.577Z,100.00
2022-09-07T04:18:25.077Z,100.00
2022-09-07T04:20:51.816Z,100.00
2022-09-07T04:23:20.008Z,100.00
2022-09-07T04:25:50.892Z,100.00
2022-09-07T04:28:19.144Z,100.00
2022-09-07T04:30:45.900Z,100.00
2022-09-07T04:33:13.431Z,100.00
2022-09-07T04:35:41.655Z,100.00
2022-09-07T04:38:12.663Z,100.00
2022-09-07T04:40:39.361Z,100.00
2022-09-07T04:43:08.156Z,100.00
2022-09-07T04:45:37.214Z,100.00
2022-09-07T04:48:04.721Z,100.00
2022-09-07T04:50:31.739Z,100.00
2022-09-07T04:52:58.376Z,100.00
2022-09-07T04:55:25.111Z,100.00
2022-09-07T04:57:51.941Z,100.00
2022-09-07T05:00:18.797Z,100.00
2022-09-07T05:02:45.500Z,100.00
2022-09-07T05:05:12.254Z,100.00
2022-09-07T05:07:38.906Z,100.00
2022-09-07T05:10:06.005Z,100.00
2022-09-07T05:12:32.834Z,100.00
2022-09-07T05:14:59.610Z,100.00
2022-09-07T05:17:26.299Z,100.00
2022-09-07T05:19:54.876Z,100.00
2022-09-07T05:22:22.368Z,100.00
2022-09-07T05:24:49.201Z,100.00
2022-09-07T05:27:15.879Z,100.00
2022-09-07T05:32:29.863Z,100.00
2022-09-07T05:34:56.535Z,100.00
2022-09-07T05:37:23.191Z,100.00
2022-09-07T05:39:49.974Z,100.00
2022-09-07T05:42:16.778Z,100.00
2022-09-07T05:44:43.884Z,99.72
2022-09-07T05:47:11.512Z,98.74
2022-09-07T05:49:38.300Z,98.08
2022-09-07T05:52:05.050Z,97.79
2022-09-07T05:54:36.400Z,96.29
2022-09-07T05:57:03.670Z,94.12
2022-09-07T05:59:30.799Z,92.92
2022-09-07T06:01:57.562Z,92.58
2022-09-07T06:04:24.618Z,90.19
2022-09-07T06:07:19.998Z,89.20
2022-09-07T06:12:26.880Z,88.29
2022-09-07T06:14:53.547Z,86.67
2022-09-07T06:17:20.188Z,86.04
2022-09-07T06:19:46.817Z,85.54
2022-09-07T06:22:13.511Z,85.82
2022-09-07T06:24:40.183Z,85.78
2022-09-07T06:27:06.835Z,85.02
2022-09-07T06:29:33.532Z,84.95
2022-09-07T06:34:46.870Z,83.62
2022-09-07T06:37:13.861Z,83.61
2022-09-07T06:39:40.723Z,82.97
2022-09-07T06:42:07.517Z,83.02
2022-09-07T06:44:34.676Z,81.38
2022-09-07T06:49:29.526Z,79.32
2022-09-07T06:51:56.236Z,78.67
2022-09-07T06:57:09.921Z,78.89
2022-09-07T06:59:37.756Z,77.96
2022-09-07T07:02:05.823Z,77.76
2022-09-07T07:04:37.695Z,77.71
2022-09-07T07:07:06.579Z,76.78
2022-09-07T07:09:33.260Z,76.14
2022-09-07T07:11:59.964Z,75.23
2022-09-07T07:14:27.471Z,74.70
2022-09-07T07:16:55.829Z,72.99
2022-09-07T07:19:22.488Z,72.65
2022-09-07T07:22:10.838Z,71.82
2022-09-07T07:24:35.755Z,70.20
2022-09-07T07:27:02.972Z,70.06
2022-09-07T07:29:29.611Z,70.53
2022-09-07T07:31:56.243Z,69.09
2022-09-07T07:34:24.155Z,68.80
2022-09-07T07:36:50.783Z,68.41
2022-09-07T07:42:05.917Z,67.57
2022-09-07T07:44:33.050Z,67.69
2022-09-07T07:46:59.760Z,66.53
2022-09-07T07:49:26.851Z,66.81
2022-09-07T07:54:43.285Z,65.04
2022-09-07T07:57:10.513Z,65.10
2022-09-07T07:59:38.063Z,63.20
2022-09-07T08:02:08.723Z,62.83
2022-09-07T08:04:36.156Z,62.73
2022-09-07T08:07:09.584Z,62.46
2022-09-07T08:09:40.822Z,62.09
2022-09-07T08:12:08.757Z,61.70
2022-09-07T08:14:41.787Z,61.53
2022-09-07T08:17:14.205Z,60.07
2022-09-07T08:19:41.026Z,59.41
2022-09-07T08:22:09.154Z,58.89
2022-09-07T08:24:35.791Z,58.99
2022-09-07T08:27:02.508Z,57.94
2022-09-07T08:29:33.576Z,57.65
2022-09-07T08:32:01.886Z,58.39
2022-09-07T08:34:29.592Z,57.55
2022-09-07T08:36:56.243Z,56.91
2022-09-07T08:39:22.814Z,56.08
2022-09-07T08:42:13.129Z,55.93
2022-09-07T08:44:52.892Z,55.79
2022-09-07T08:47:35.324Z,54.38
2022-09-07T08:50:17.032Z,53.48
2022-09-07T08:53:08.646Z,52.62
2022-09-07T08:55:40.704Z,51.06
2022-09-07T08:58:45.384Z,51.04
2022-09-07T09:04:16.969Z,50.25
2022-09-07T09:06:52.562Z,49.80
2022-09-07T09:09:45.386Z,49.91
2022-09-07T09:12:26.784Z,49.52
2022-09-07T09:15:15.593Z,49.93
2022-09-07T09:17:53.438Z,50.51
2022-09-07T09:20:41.632Z,50.97
2022-09-07T09:23:16.966Z,49.52
2022-09-07T09:26:00.006Z,48.47
2022-09-07T09:28:28.996Z,47.84
2022-09-07T09:30:58.531Z,47.98
2022-09-07T09:33:28.817Z,48.44
2022-09-07T09:36:00.896Z,49.07
2022-09-07T09:38:39.531Z,49.53
2022-09-07T09:41:08.839Z,46.25
2022-09-07T09:43:45.806Z,45.61
2022-09-07T09:46:31.478Z,45.00
2022-09-07T09:49:03.346Z,43.09
2022-09-07T09:54:27.160Z,43.93
2022-09-07T09:56:53.832Z,42.79
2022-09-07T10:05:37.761Z,42.57
2022-09-07T10:08:16.145Z,41.10
2022-09-07T10:11:00.760Z,41.22
2022-09-07T10:13:51.748Z,39.56
2022-09-07T10:16:18.760Z,40.00
2022-09-07T10:18:58.739Z,39.19
2022-09-07T10:21:28.571Z,39.70
2022-09-07T10:24:15.436Z,38.80
2022-09-07T10:26:48.390Z,38.68
2022-09-07T10:29:17.071Z,38.03
2022-09-07T10:31:48.315Z,37.72
2022-09-07T10:34:47.699Z,37.69
2022-09-07T10:37:42.254Z,36.31
2022-09-07T10:40:31.785Z,36.58
2022-09-07T10:43:25.523Z,36.20
2022-09-07T10:49:38.237Z,37.82
2022-09-07T10:52:34.551Z,37.71
2022-09-07T10:55:26.504Z,36.80
2022-09-07T10:58:14.265Z,36.53
2022-09-07T11:01:36.613Z,36.30
2022-09-07T11:04:28.942Z,34.55
2022-09-07T11:07:18.444Z,35.11
2022-09-07T11:09:55.557Z,35.22
2022-09-07T11:12:29.509Z,36.18
2022-09-07T11:15:04.933Z,36.30
2022-09-07T11:17:55.493Z,35.27
2022-09-07T11:20:34.193Z,36.47
2022-09-07T11:23:15.507Z,36.98
2022-09-07T11:25:54.265Z,38.33
2022-09-07T11:28:33.076Z,35.51
2022-09-07T11:31:04.287Z,34.32
2022-09-07T11:34:23.800Z,34.45
2022-09-07T11:36:36.097Z,35.12
2022-09-07T11:39:09.996Z,32.81
2022-09-07T11:41:46.997Z,32.46
2022-09-07T11:44:31.641Z,33.97
2022-09-07T11:47:07.356Z,33.82
2022-09-07T11:49:34.024Z,34.82
2022-09-07T11:52:08.929Z,34.59
2022-09-07T11:54:51.908Z,34.32
2022-09-07T11:57:32.750Z,34.11
2022-09-07T12:00:20.123Z,33.45
2022-09-07T12:03:22.610Z,35.12
2022-09-07T12:06:05.358Z,34.76
2022-09-07T12:09:05.745Z,33.94
2022-09-07T12:12:07.172Z,34.67
2022-09-07T12:14:55.201Z,33.34
2022-09-07T12:17:28.987Z,33.21
2022-09-07T12:20:12.007Z,33.14
2022-09-07T12:22:55.538Z,33.57
2022-09-07T12:25:22.376Z,33.08
2022-09-07T12:27:49.400Z,33.45
2022-09-07T12:30:15.938Z,33.06
2022-09-07T12:32:55.002Z,32.42
2022-09-07T12:35:28.760Z,32.21
2022-09-07T12:38:00.379Z,31.89
2022-09-07T12:40:29.791Z,31.96
2022-09-07T12:43:14.664Z,32.52
2022-09-07T12:45:41.987Z,32.36
2022-09-07T12:48:17.678Z,31.61
2022-09-07T12:51:08.362Z,32.88
2022-09-07T12:54:09.734Z,32.86
2022-09-07T12:56:42.699Z,33.06
2022-09-07T12:59:34.639Z,31.49
2022-09-07T13:02:10.436Z,32.16
2022-09-07T13:05:01.864Z,32.66
2022-09-07T13:07:34.364Z,30.91
2022-09-07T13:10:43.078Z,32.03
2022-09-07T13:13:15.764Z,32.45
2022-09-07T13:15:50.059Z,32.06
2022-09-07T13:18:37.428Z,31.07
2022-09-07T13:21:07.093Z,31.35
2022-09-07T13:23:45.576Z,31.39
2022-09-07T13:26:33.411Z,32.16
2022-09-07T13:29:04.527Z,32.11
2022-09-07T13:31:48.263Z,32.85
2022-09-07T13:34:33.661Z,32.99
2022-09-07T13:37:02.008Z,32.99
2022-09-07T13:39:32.570Z,32.87
2022-09-07T13:42:00.669Z,32.86
2022-09-07T13:44:33.072Z,33.06
2022-09-07T13:47:18.170Z,32.63
2022-09-07T13:49:57.924Z,32.88
2022-09-07T13:52:50.607Z,32.32
2022-09-07T13:55:33.126Z,31.90
2022-09-07T13:58:13.311Z,31.94
2022-09-07T14:00:58.963Z,32.24
2022-09-07T14:03:29.641Z,33.29
2022-09-07T14:06:21.303Z,33.33
2022-09-07T14:08:50.396Z,32.58
2022-09-07T14:11:38.461Z,32.79
2022-09-07T14:14:13.789Z,33.06
2022-09-07T14:16:42.721Z,32.98
2022-09-07T14:19:11.578Z,31.78
2022-09-07T14:21:38.915Z,33.01
2022-09-07T14:24:19.471Z,33.20
2022-09-07T14:26:48.383Z,33.28
2022-09-07T14:29:32.706Z,34.54
2022-09-07T14:32:01.623Z,33.65
2022-09-07T14:34:33.940Z,33.18
2022-09-07T14:37:04.961Z,32.92
2022-09-07T14:39:37.494Z,33.80
2022-09-07T14:42:04.654Z,33.28
2022-09-07T14:44:32.668Z,33.32
2022-09-07T14:47:03.474Z,33.28
2022-09-07T14:49:30.353Z,32.99
2022-09-07T14:51:57.263Z,33.26
2022-09-07T14:54:28.852Z,33.19
2022-09-07T14:57:30.701Z,34.01
2022-09-07T14:59:58.989Z,34.81
2022-09-07T15:02:33.571Z,35.06
2022-09-07T15:05:25.771Z,34.19
2022-09-07T15:07:55.272Z,33.34
2022-09-07T15:10:22.481Z,33.06
2022-09-07T15:12:52.288Z,33.37
2022-09-07T15:15:21.410Z,33.65
2022-09-07T15:17:48.363Z,34.42
2022-09-07T15:20:47.531Z,34.49
2022-09-07T15:23:15.167Z,34.76
2022-09-07T15:25:46.493Z,34.82
2022-09-07T15:34:10.090Z,36.54
2022-09-07T15:36:40.350Z,36.69
2022-09-07T15:39:07.494Z,36.56
2022-09-07T15:41:34.864Z,37.07
2022-09-07T15:44:02.767Z,37.22
2022-09-07T15:46:29.423Z,37.46
2022-09-07T15:48:56.371Z,37.43
2022-09-07T15:54:13.054Z,38.03
2022-09-07T15:56:40.718Z,38.61
2022-09-07T15:59:07.593Z,38.77
2022-09-07T16:04:23.789Z,39.88
2022-09-07T16:06:50.867Z,39.89
2022-09-07T16:09:21.204Z,40.05
2022-09-07T16:11:50.143Z,40.46
2022-09-07T16:14:17.830Z,40.95
2022-09-07T16:19:35.075Z,41.93
2022-09-07T16:22:03.337Z,42.72
2022-09-07T16:24:30.075Z,43.40
2022-09-07T16:26:56.762Z,44.27
2022-09-07T16:29:23.364Z,44.88
2022-09-07T16:34:36.635Z,45.67
2022-09-07T16:37:03.656Z,46.26
2022-09-07T16:39:30.578Z,47.97
2022-09-07T16:41:57.458Z,49.69
2022-09-07T16:44:24.159Z,50.26
2022-09-07T16:46:50.978Z,50.69
2022-09-07T16:49:17.903Z,51.24
2022-09-07T16:51:45.788Z,50.64
2022-09-07T16:54:13.963Z,50.74
2022-09-07T16:56:40.767Z,51.65
2022-09-07T16:59:09.508Z,52.62
2022-09-07T17:01:40.145Z,54.33
2022-09-07T17:04:10.976Z,55.52
2022-09-07T17:06:39.581Z,56.87
2022-09-07T17:09:07.137Z,56.70
2022-09-07T17:11:35.639Z,56.68
2022-09-07T17:14:02.469Z,57.11
2022-09-07T17:16:32.063Z,57.84
2022-09-07T17:21:51.799Z,57.40
2022-09-07T17:24:19.723Z,57.22
2022-09-07T17:26:46.686Z,57.12
2022-09-07T17:29:13.483Z,57.62
2022-09-07T17:34:26.840Z,63.30
2022-09-07T17:36:53.610Z,62.31
2022-09-07T17:39:20.353Z,61.14
2022-09-07T17:41:52.707Z,61.20
2022-09-07T17:44:19.974Z,61.74
2022-09-07T17:46:46.550Z,61.27
2022-09-07T17:49:16.377Z,63.43
2022-09-07T17:51:43.756Z,63.66
2022-09-07T17:54:14.307Z,64.84
2022-09-07T17:56:41.906Z,66.19
2022-09-07T18:01:56.399Z,69.49
2022-09-07T18:04:23.633Z,70.30
2022-09-07T18:06:50.708Z,69.03
2022-09-07T18:09:17.460Z,68.48
2022-09-07T18:11:45.822Z,68.43
2022-09-07T18:14:14.596Z,67.70
2022-09-07T18:16:42.059Z,67.66
2022-09-07T18:19:08.824Z,67.10
2022-09-07T18:21:37.352Z,67.66
2022-09-07T18:24:08.077Z,68.41
2022-09-07T18:26:38.415Z,68.09
2022-09-07T18:29:13.242Z,67.65
2022-09-07T18:31:53.937Z,68.63
2022-09-07T18:34:20.827Z,67.90
2022-09-07T18:36:47.552Z,70.04
2022-09-07T18:39:14.345Z,71.01
2022-09-07T18:41:42.147Z,70.69
2022-09-07T18:45:27.142Z,70.19
2022-09-07T18:46:55.593Z,69.88
2022-09-07T18:49:22.209Z,71.96
2022-09-07T18:54:35.474Z,71.68
2022-09-07T18:57:03.218Z,73.18
2022-09-07T18:59:29.974Z,70.38
2022-09-07T19:02:03.016Z,70.49
2022-09-07T19:07:18.635Z,70.94
2022-09-07T19:09:45.393Z,71.26
2022-09-07T19:12:12.146Z,70.56
2022-09-07T19:14:38.839Z,70.35
2022-09-07T19:17:05.636Z,70.68
2022-09-07T19:19:34.368Z,70.53
2022-09-07T19:22:02.422Z,69.85
2022-09-07T19:24:29.068Z,71.00
2022-09-07T19:27:00.058Z,68.03
2022-09-07T19:29:27.393Z,68.17
2022-09-07T19:32:12.035Z,68.32
2022-09-07T19:34:43.662Z,68.43
2022-09-07T19:37:12.635Z,69.21
2022-09-07T19:39:39.750Z,69.79
2022-09-07T19:42:07.117Z,69.84
2022-09-07T19:44:33.806Z,69.90
2022-09-07T19:47:00.934Z,71.23
2022-09-07T19:49:28.263Z,71.65
2022-09-07T19:51:55.029Z,70.90
2022-09-07T19:54:22.061Z,71.52
2022-09-07T19:56:48.793Z,70.98
2022-09-07T19:59:15.586Z,70.36
2022-09-07T20:01:46.339Z,69.65
2022-09-07T20:04:20.266Z,70.03
2022-09-07T20:06:50.281Z,70.32
2022-09-07T20:09:17.381Z,70.98
2022-09-07T20:11:46.775Z,70.92
2022-09-07T20:14:14.632Z,71.08
2022-09-07T20:16:41.794Z,71.47
2022-09-07T20:19:08.748Z,71.60
2022-09-07T20:21:36.888Z,71.40
2022-09-07T20:24:04.121Z,70.94
2022-09-07T20:26:32.530Z,70.89
2022-09-07T20:29:23.454Z,71.61
2022-09-07T20:31:48.217Z,71.16
2022-09-07T20:34:14.918Z,70.84
2022-09-07T20:36:41.806Z,70.32
2022-09-07T20:39:08.670Z,69.77
2022-09-07T20:41:35.318Z,69.64
2022-09-07T20:44:04.135Z,69.52
2022-09-07T20:46:31.577Z,69.90
2022-09-07T20:48:58.589Z,69.96
2022-09-07T20:51:25.361Z,69.24
2022-09-07T20:53:52.039Z,68.97
2022-09-07T20:56:24.120Z,68.75
2022-09-07T20:58:55.622Z,68.38
2022-09-07T21:01:23.183Z,69.16
2022-09-07T21:03:52.956Z,69.23
2022-09-07T21:06:21.700Z,69.02
2022-09-07T21:08:49.344Z,69.16
2022-09-07T21:11:18.857Z,69.03
2022-09-07T21:13:46.662Z,68.73
2022-09-07T21:16:16.376Z,68.87
2022-09-07T21:18:44.345Z,68.27
2022-09-07T21:21:20.393Z,68.27
2022-09-07T21:23:48.056Z,68.21
2022-09-07T21:26:15.264Z,68.20
2022-09-07T21:28:41.922Z,68.23
2022-09-07T21:31:13.435Z,67.88
2022-09-07T21:33:40.085Z,68.23
2022-09-07T21:36:09.493Z,69.21
2022-09-07T21:38:37.676Z,69.44
2022-09-07T21:41:13.463Z,68.98
2022-09-07T21:43:40.916Z,69.61
2022-09-07T21:46:16.741Z,69.50
2022-09-07T21:48:46.903Z,69.02
2022-09-07T21:51:14.603Z,68.71
2022-09-07T21:53:42.623Z,68.45
2022-09-07T21:56:14.225Z,68.20
2022-09-07T21:58:41.477Z,68.82
2022-09-07T22:01:14.506Z,68.07
2022-09-07T22:03:41.197Z,68.72
2022-09-07T22:06:08.787Z,68.48
2022-09-07T22:08:37.066Z,68.48
2022-09-07T22:11:06.295Z,68.89
2022-09-07T22:13:33.582Z,68.55
2022-09-07T22:16:00.336Z,68.94
2022-09-07T22:18:27.893Z,69.06
2022-09-07T22:21:16.180Z,70.10
2022-09-07T22:23:45.769Z,69.60
2022-09-07T22:26:13.207Z,69.66
2022-09-07T22:28:40.835Z,69.94
2022-09-07T22:31:14.494Z,70.29
2022-09-07T22:33:42.088Z,70.15
2022-09-07T22:36:30.109Z,70.21
2022-09-07T22:38:58.708Z,70.20
2022-09-07T22:41:28.285Z,70.57
2022-09-07T22:43:55.420Z,71.05
2022-09-07T22:46:25.420Z,70.99
2022-09-07T22:48:57.357Z,71.89
2022-09-07T22:51:25.323Z,72.08
2022-09-07T22:53:52.821Z,72.01
2022-09-07T22:56:22.435Z,72.72
2022-09-07T22:58:50.269Z,73.20
2022-09-07T23:01:17.844Z,74.31
2022-09-07T23:03:45.087Z,74.80
2022-09-07T23:06:23.566Z,75.14
2022-09-07T23:08:51.373Z,76.03
2022-09-07T23:11:18.316Z,76.11
2022-09-07T23:13:45.436Z,76.57
2022-09-07T23:16:12.225Z,77.00
2022-09-07T23:18:42.804Z,77.07
2022-09-07T23:21:10.948Z,77.11
2022-09-07T23:23:38.576Z,77.50
2022-09-07T23:26:07.148Z,77.95
2022-09-07T23:28:34.547Z,78.66
2022-09-07T23:31:01.664Z,78.33
2022-09-07T23:33:28.345Z,78.81
2022-09-07T23:36:00.300Z,79.29
2022-09-07T23:38:27.457Z,80.12
2022-09-07T23:40:55.131Z,80.41
2022-09-07T23:43:22.897Z,80.03
2022-09-07T23:45:49.880Z,81.14
2022-09-07T23:48:16.790Z,81.34
2022-09-07T23:50:44.900Z,82.67
2022-09-07T23:53:12.460Z,83.17
2022-09-07T23:55:39.694Z,83.96
2022-09-07T23:58:06.953Z,84.76
